• Join FlightAware (Why Join?)
  • Login
  • US Flag 
05:55AM EDT


 

Airport Tracker/Info


-or-


 

Live Flight TrackerFlight Track Log ✈ N770NC ✈ 12-Jun-2013 ✈ KLIT - KATL

Flight Track Log - Related Links

Times and Time Zones

All times are in EDT time to prevent confusion due to time zone crossing. See the N770NC flight status page for this flight to view local times or setup timezone preferences in your user account.

Time Position Orientation Groundspeed Altitude Reporting Facility
EDT Latitude Longitude Course Direction KTS MPH feet Rate Location/Type
07:46PM 34.6661 -92.2181 152° Southeast 235 270 2,800  Level Memphis Center
07:47PM 34.6733 -92.1350 84° East 268 308 4,700 1,740 Climbing Memphis Center
07:48PM 34.6892 -92.0469 78° East 323 372 6,200 2,220 Climbing Memphis Center
07:49PM 34.7219 -91.9339 71° East 330 380 9,500 2,220 Climbing Memphis Center
07:50PM 34.7319 -91.8178 84° East 325 374 11,200 1,500 Climbing Memphis Center
07:51PM 34.7375 -91.6914 87° East 356 410 12,600 1,620 Climbing Memphis Center
07:52PM 34.7556 -91.5578 81° East 392 451 14,500 1,740 Climbing Memphis Center
07:53PM 34.7775 -91.4267 78° East 398 458 16,100 1,560 Climbing Memphis Center
07:54PM 34.8058 -91.2778 77° East 398 458 17,700 1,500 Climbing Memphis Center
07:55PM 34.8278 -91.1339 79° East 412 474 19,200 1,560 Climbing Memphis Center
07:56PM 34.8514 -90.9922 78° East 417 480 20,900 1,440 Climbing Memphis Center
07:57PM 34.8686 -90.8481 82° East 429 494 22,100 1,200 Climbing Memphis Center
07:58PM 34.8900 -90.6964 80° East 440 506 23,300 1,200 Climbing Memphis Center
07:59PM 34.9092 -90.5444 81° East 451 519 24,500 1,140 Climbing Memphis Center
08:00PM 34.9303 -90.3875 81° East 456 525 25,600 1,140 Climbing Memphis Center
08:01PM 34.9656 -90.2406 74° East 461 531 26,800 900 Climbing Memphis Center
08:02PM 35.0069 -90.1036 70° East 454 522 27,500 660 Climbing Memphis Center
08:03PM 35.0211 -89.9439 84° East 465 535 28,200 660 Climbing Memphis Center
08:04PM 35.0183 -89.7714 91° East 490 564 28,900 360 Climbing Memphis Center
08:05PM 34.9653 -89.5919 110° East 499 574 29,000  Climbing Memphis Center
08:06PM 34.9161 -89.4328 111° Southeast 505 581 29,000  Level Memphis Center
08:07PM 34.8856 -89.2686 103° East 494 568 29,000  Level Memphis Center
08:08PM 34.8611 -89.1017 100° East 494 568 29,000  Level Memphis Center
08:09PM 34.8386 -88.9350 99° East 494 568 29,000  Level Memphis Center
08:10PM 34.8156 -88.7686 100° East 494 568 29,000  Level Memphis Center
08:11PM 34.7947 -88.6197 100° East 500 575 29,000  Level Memphis Center
08:12PM 34.7714 -88.4458 99° East 492 566 29,000  Level Memphis Center
08:13PM 34.7478 -88.2819 100° East 486 559 29,000  Level Memphis Center
08:14PM 34.7286 -88.1258 98° East 496 571 29,000  Level Memphis Center
08:15PM 34.7067 -87.9622 99° East 496 571 29,000  Level Memphis Center
08:16PM 34.6847 -87.8011 99° East 496 571 29,000  Level Memphis Center
08:17PM 34.6644 -87.6353 98° East 491 565 29,000  Level Memphis Center
08:18PM 34.6419 -87.4642 99° East 478 550 29,000  Level Memphis Center
08:19PM 34.6203 -87.2672 98° East 492 566 29,000  Level Atlanta Center
08:20PM 34.5972 -87.1022 100° East 487 560 29,000  Level Atlanta Center
08:21PM 34.5817 -86.9681 98° East 487 560 29,000  Level Atlanta Center
08:22PM 34.5481 -86.7978 103° East 481 554 29,000  Level Atlanta Center
08:23PM 34.5142 -86.6353 104° East 481 554 29,000 -240 Level Atlanta Center
08:24PM 34.4817 -86.4831 104° East 476 548 28,600 -720 Descending Atlanta Center
08:25PM 34.4469 -86.3436 107° East 459 528 27,600 -1,020 Descending Atlanta Center
08:26PM 34.4139 -86.2067 106° East 439 505 26,600 -960 Descending Atlanta Center
08:27PM 34.4289 -86.0661 83° East 414 476 25,700 -900 Descending Atlanta Center
08:28PM 34.4478 -85.9281 81° East 409 471 24,800 -900 Descending Atlanta Center
08:29PM 34.3872 -85.7831 117° Southeast 402 463 24,000 -420 Descending Atlanta Center
08:30PM 34.3283 -85.6714 123° Southeast 420 483 24,000 -1,080 Level Atlanta Center
08:31PM 34.2714 -85.5419 118° Southeast 433 498 21,900 -2,400 Descending Atlanta Center
08:32PM 34.2417 -85.4108 105° East 412 474 19,200 -2,580 Descending Atlanta Center
08:33PM 34.2136 -85.2847 105° East 392 451 16,800 -2,220 Descending Atlanta Center
08:34PM 34.1836 -85.1639 107° East 376 433 14,800 -1,380 Descending Atlanta Center
08:35PM 34.1303 -85.0425 118° Southeast 366 421 14,100 -600 Descending Atlanta Center
08:36PM 34.0581 -84.9564 135° Southeast 366 421 13,700 -660 Descending Atlanta Center
08:37PM 33.9856 -84.8706 136° Southeast 360 414 12,800 -900 Descending Atlanta Center
08:38PM 33.9131 -84.7872 136° Southeast 360 414 12,000 -420 Descending Atlanta Center
08:39PM 33.8333 -84.7000 138° Southeast 352 405 12,000  Level Atlanta TRACON
08:40PM 33.7667 -84.6167 134° Southeast 346 398 12,000 -120 Level Atlanta TRACON
08:41PM 33.7167 -84.5333 126° Southeast 303 349 11,800 -900 Descending Atlanta TRACON
08:42PM 33.7333 -84.4500 76° East 285 328 10,400 -1,740 Descending Atlanta TRACON
08:43PM 33.7333 -84.3667 90° East 252 290 8,500 -2,100 Descending Atlanta TRACON
08:44PM 33.7333 -84.2833 90° East 244 281 6,200 -1,740 Descending Atlanta TRACON
08:45PM 33.7000 -84.2167 121° Southeast 226 260 4,900 -1,200 Descending Atlanta TRACON
08:46PM 33.6667 -84.2333 203° Southwest 184 212 3,900 -1,080 Descending Atlanta TRACON
08:47PM 33.6500 -84.2833 248° West 181 208 2,900 -960 Descending Atlanta TRACON
08:48PM 33.6500 -84.3500 270° West 185 213 2,000 -900 Descending Atlanta TRACON